Time;durP1;ratioP1;P1;durP2;ratioP2;P2;SDS_P1;SDS_P2;PMS_P1;PMS_P2;Temp;Humidity;BMP_temperature;BMP_pressure;BME280_temperature;BME280_humidity;BME280_pressure;Samples;Min_cycle;Max_cycle;Signal;HPM_P1;HPM_P2
2022/08/24 00:01:48;;;;;;;1.60;0.80;;;21.60;1.00;;;;;;5117994;28;20829;-73
2022/08/24 00:04:15;;;;;;;1.60;1.00;;;21.60;1.00;;;;;;5115658;28;20819;-73
2022/08/24 00:06:45;;;;;;;1.10;0.90;;;21.60;1.00;;;;;;5117279;28;20515;-73
2022/08/24 00:09:12;;;;;;;0.80;0.70;;;21.60;1.00;;;;;;5115918;28;20452;-73
2022/08/24 00:11:39;;;;;;;1.27;1.00;;;21.60;1.00;;;;;;5118118;28;20440;-73
2022/08/24 00:14:07;;;;;;;1.20;0.90;;;21.50;1.00;;;;;;5115104;28;20488;-73
2022/08/24 00:16:35;;;;;;;0.90;0.80;;;21.50;1.00;;;;;;5118144;28;20453;-73
2022/08/24 00:19:02;;;;;;;1.70;0.80;;;21.40;1.00;;;;;;5116230;28;20864;-73
2022/08/24 00:21:29;;;;;;;1.33;0.87;;;21.50;1.00;;;;;;5118322;28;20595;-73
2022/08/24 00:23:56;;;;;;;1.10;0.80;;;21.40;1.00;;;;;;5115780;28;20962;-73
2022/08/24 00:26:23;;;;;;;1.40;1.00;;;21.40;1.00;;;;;;5118036;28;20516;-73
2022/08/24 00:28:50;;;;;;;1.00;0.80;;;21.40;1.00;;;;;;5115656;28;20533;-74
2022/08/24 00:31:18;;;;;;;1.10;0.90;;;21.50;1.00;;;;;;5117517;28;20491;-73
2022/08/24 00:33:45;;;;;;;0.80;0.80;;;21.50;1.00;;;;;;5115369;28;20460;-73
2022/08/24 00:36:12;;;;;;;1.00;0.80;;;21.50;1.00;;;;;;5117985;28;20444;-73
2022/08/24 00:38:39;;;;;;;1.87;0.90;;;21.50;1.00;;;;;;5115410;28;20872;-73
2022/08/24 00:41:06;;;;;;;1.73;0.80;;;21.50;1.00;;;;;;5117724;28;20804;-73
2022/08/24 00:43:33;;;;;;;1.50;0.90;;;21.40;1.00;;;;;;5116524;28;20484;-73
2022/08/24 00:46:13;;;;;;;0.80;0.70;;;21.40;1.00;;;;;;5117587;28;20571;-73
2022/08/24 00:48:46;;;;;;;1.80;0.80;;;21.40;1.00;;;;;;5115145;28;20491;-73
2022/08/24 00:51:20;;;;;;;1.07;0.80;;;21.40;1.00;;;;;;5117178;28;20532;-72
2022/08/24 00:53:51;;;;;;;1.73;0.80;;;21.30;1.00;;;;;;5115113;28;20517;-72
2022/08/24 00:56:23;;;;;;;2.00;0.90;;;21.20;1.00;;;;;;5117023;28;20899;-72
2022/08/24 00:59:00;;;;;;;1.70;1.07;;;21.20;1.00;;;;;;5114408;28;20884;-72
2022/08/24 01:01:29;;;;;;;1.20;0.90;;;21.20;1.00;;;;;;5116910;28;20517;-72
2022/08/24 01:03:58;;;;;;;1.10;0.80;;;21.10;1.00;;;;;;5114074;28;20533;-72
2022/08/24 01:06:26;;;;;;;1.10;0.90;;;21.10;1.00;;;;;;5116987;28;20477;-72
2022/08/24 01:08:53;;;;;;;1.37;0.87;;;21.00;1.00;;;;;;5114641;28;20483;-72
2022/08/24 01:11:23;;;;;;;1.53;0.90;;;21.00;1.00;;;;;;5117697;28;20436;-72
2022/08/24 01:13:52;;;;;;;1.20;0.90;;;21.00;1.00;;;;;;5115423;28;20463;-72
2022/08/24 01:19:03;;;;;;;0.93;0.80;;;21.00;1.00;;;;;;5114163;28;20433;-72
2022/08/24 01:21:38;;;;;;;1.17;0.90;;;21.00;1.00;;;;;;5117124;28;20433;-72
2022/08/24 01:24:12;;;;;;;1.03;0.93;;;21.00;1.00;;;;;;5115925;28;20475;-73
2022/08/24 01:26:43;;;;;;;1.47;1.20;;;21.10;1.00;;;;;;5116572;28;20508;-72
2022/08/24 01:29:14;;;;;;;1.13;1.03;;;21.10;1.00;;;;;;5110745;28;20529;-72
2022/08/24 01:31:41;;;;;;;1.17;1.00;;;21.10;1.00;;;;;;5114324;28;20468;-72
2022/08/24 01:34:09;;;;;;;1.10;0.90;;;21.10;1.00;;;;;;5113396;28;20485;-72
2022/08/24 01:36:39;;;;;;;1.10;0.83;;;21.10;1.00;;;;;;5115520;28;20441;-72
2022/08/24 01:39:11;;;;;;;0.90;0.80;;;21.10;1.00;;;;;;5113507;28;20456;-72
2022/08/24 01:41:38;;;;;;;1.10;0.80;;;21.00;1.00;;;;;;5115416;28;20438;-72
2022/08/24 01:44:06;;;;;;;1.13;0.93;;;20.90;1.00;;;;;;5111592;28;20499;-72
2022/08/24 01:46:33;;;;;;;0.80;0.80;;;20.90;1.00;;;;;;5115256;28;20512;-72
2022/08/24 01:49:00;;;;;;;1.07;0.97;;;20.80;1.00;;;;;;5113199;28;20961;-72
2022/08/24 01:51:30;;;;;;;1.10;1.00;;;20.70;1.00;;;;;;5115669;28;20440;-74
2022/08/24 01:53:58;;;;;;;1.77;0.83;;;20.70;1.00;;;;;;5113088;28;20452;-73
2022/08/24 01:56:27;;;;;;;1.87;1.00;;;20.50;1.00;;;;;;5115782;28;20506;-73
2022/08/24 01:58:54;;;;;;;1.33;0.87;;;20.50;1.00;;;;;;5115041;28;20508;-73
2022/08/24 02:01:21;;;;;;;1.13;1.00;;;20.40;1.00;;;;;;5116725;28;20476;-71
2022/08/24 02:03:48;;;;;;;1.13;0.90;;;20.40;1.00;;;;;;5114045;28;20492;-73
2022/08/24 02:06:18;;;;;;;1.10;0.80;;;20.30;1.00;;;;;;5116582;28;20781;-72
2022/08/24 02:08:45;;;;;;;1.20;0.90;;;20.50;1.00;;;;;;5114037;28;20496;-72
2022/08/24 02:11:12;;;;;;;0.90;0.80;;;20.50;1.00;;;;;;5116471;28;20927;-72
2022/08/24 02:13:42;;;;;;;1.07;0.90;;;20.60;1.00;;;;;;5114341;28;20492;-73
2022/08/24 02:16:09;;;;;;;1.13;1.00;;;20.50;1.00;;;;;;5116128;28;20440;-72
2022/08/24 02:18:39;;;;;;;0.83;0.73;;;20.60;1.00;;;;;;5114870;28;20535;-73
2022/08/24 02:21:07;;;;;;;1.30;1.00;;;20.60;1.00;;;;;;5115983;28;20440;-72
2022/08/24 02:23:35;;;;;;;1.10;1.00;;;20.60;1.00;;;;;;5115320;28;20479;-72
2022/08/24 02:26:03;;;;;;;1.00;0.90;;;20.50;1.00;;;;;;5116361;28;20487;-72
2022/08/24 02:28:29;;;;;;;1.23;0.80;;;20.40;1.00;;;;;;5114950;28;20808;-72
2022/08/24 02:30:58;;;;;;;1.07;0.93;;;20.30;1.00;;;;;;5116371;28;20539;-72
2022/08/24 02:33:25;;;;;;;1.00;0.80;;;20.30;1.00;;;;;;5115251;28;20547;-73
2022/08/24 02:35:53;;;;;;;1.10;0.80;;;20.30;1.00;;;;;;5116020;28;20482;-72
2022/08/24 02:38:21;;;;;;;1.00;0.87;;;20.20;1.00;;;;;;5114280;28;20479;-72
2022/08/24 02:40:48;;;;;;;1.10;0.90;;;20.20;1.00;;;;;;5116512;28;20540;-72
2022/08/24 02:43:15;;;;;;;1.40;1.10;;;20.20;1.00;;;;;;5116224;28;20492;-72
2022/08/24 02:45:44;;;;;;;1.10;1.00;;;20.20;1.00;;;;;;5115385;28;20776;-73
2022/08/24 02:48:14;;;;;;;1.10;1.00;;;20.10;1.00;;;;;;5113328;28;20480;-73
2022/08/24 02:50:42;;;;;;;1.07;0.97;;;20.10;1.00;;;;;;5116040;28;20521;-73
2022/08/24 02:53:10;;;;;;;1.10;1.00;;;20.00;1.00;;;;;;5114528;28;20541;-72
2022/08/24 02:55:40;;;;;;;1.70;0.97;;;20.00;1.00;;;;;;5118045;28;20449;-72
2022/08/24 02:58:07;;;;;;;1.00;0.90;;;20.00;1.00;;;;;;5116879;28;20545;-72
2022/08/24 03:00:35;;;;;;;1.23;0.93;;;19.90;1.00;;;;;;5119363;28;20445;-72
2022/08/24 03:03:02;;;;;;;1.10;1.00;;;19.80;1.00;;;;;;5118047;28;20458;-72
2022/08/24 03:05:31;;;;;;;1.23;0.90;;;19.80;1.00;;;;;;5119876;28;20756;-72
2022/08/24 03:07:58;;;;;;;3.13;0.90;;;19.90;1.00;;;;;;5118714;28;20543;-72
2022/08/24 03:10:24;;;;;;;0.90;0.80;;;20.00;1.00;;;;;;5119869;28;20480;-72
2022/08/24 03:12:52;;;;;;;1.57;1.00;;;19.90;1.00;;;;;;5117014;28;20553;-72
2022/08/24 03:15:21;;;;;;;1.73;0.90;;;19.80;1.00;;;;;;5119520;28;20445;-72
2022/08/24 03:17:49;;;;;;;1.07;0.97;;;19.80;1.00;;;;;;5116814;28;20719;-72
2022/08/24 03:20:21;;;;;;;1.10;0.90;;;19.70;1.00;;;;;;5119236;28;20941;-72
2022/08/24 03:22:49;;;;;;;1.40;0.87;;;19.60;1.00;;;;;;5117262;28;20453;-72
2022/08/24 03:25:18;;;;;;;1.13;0.87;;;19.60;1.00;;;;;;5119038;28;20473;-72
2022/08/24 03:27:45;;;;;;;1.90;0.90;;;19.60;1.00;;;;;;5116768;28;20527;-73
2022/08/24 03:30:15;;;;;;;1.00;0.80;;;19.60;1.00;;;;;;5119393;28;20451;-71
2022/08/24 03:32:42;;;;;;;1.20;0.97;;;19.60;1.00;;;;;;5117639;28;20456;-73
2022/08/24 03:35:11;;;;;;;1.10;0.90;;;19.50;1.00;;;;;;5119237;28;20498;-71
2022/08/24 03:37:38;;;;;;;2.70;0.90;;;19.40;1.00;;;;;;5118107;28;20491;-72
2022/08/24 03:40:10;;;;;;;1.20;0.97;;;19.50;6.80;;;;;;5118128;28;20474;-72
2022/08/24 03:42:37;;;;;;;1.80;1.10;;;19.40;21.00;;;;;;5116151;28;20505;-72
2022/08/24 03:45:05;;;;;;;1.47;0.90;;;19.40;20.20;;;;;;5118008;28;20543;-72
2022/08/24 03:47:32;;;;;;;1.10;1.00;;;19.40;63.20;;;;;;5115636;28;20566;-72
2022/08/24 03:49:59;;;;;;;1.57;0.80;;;19.50;59.20;;;;;;5118800;28;20483;-72
2022/08/24 03:52:26;;;;;;;1.30;1.00;;;19.50;33.00;;;;;;5116277;28;20758;-72
2022/08/24 03:54:53;;;;;;;1.63;1.00;;;19.50;22.40;;;;;;5118823;28;20747;-72
2022/08/24 03:57:21;;;;;;;1.10;1.00;;;19.50;29.80;;;;;;5117531;28;20540;-72
2022/08/24 03:59:48;;;;;;;1.30;1.00;;;19.50;51.40;;;;;;5118137;28;20568;-72
2022/08/24 04:02:15;;;;;;;1.27;0.83;;;19.50;76.30;;;;;;5116053;28;20838;-72
2022/08/24 04:04:42;;;;;;;1.30;1.10;;;19.50;54.00;;;;;;5118076;28;20815;-72
2022/08/24 04:07:09;;;;;;;4.50;1.30;;;19.50;53.20;;;;;;5115637;28;20546;-72
2022/08/24 04:09:36;;;;;;;1.40;1.00;;;19.40;79.30;;;;;;5118876;28;20501;-72
2022/08/24 04:12:04;;;;;;;1.60;1.10;;;19.40;70.00;;;;;;5118448;28;20790;-71
2022/08/24 04:14:33;;;;;;;1.80;1.20;;;19.40;99.90;;;;;;5116212;28;20512;-72
2022/08/24 04:17:00;;;;;;;1.20;1.10;;;19.40;99.90;;;;;;5118363;28;20290;-72
2022/08/24 04:19:28;;;;;;;1.30;1.10;;;19.30;99.90;;;;;;5117565;28;20477;-72
2022/08/24 04:21:57;;;;;;;1.60;1.13;;;19.50;99.90;;;;;;5118147;28;20491;-72
2022/08/24 04:24:25;;;;;;;1.27;1.07;;;19.50;90.20;;;;;;5116487;28;20945;-72
2022/08/24 04:26:51;;;;;;;1.43;1.03;;;19.30;98.90;;;;;;5118131;28;20947;-71
2022/08/24 04:29:20;;;;;;;2.97;1.00;;;19.30;99.90;;;;;;5115282;28;20506;-71
2022/08/24 04:31:49;;;;;;;1.17;1.00;;;19.50;99.90;;;;;;5116869;28;20534;-72
2022/08/24 04:34:17;;;;;;;1.50;0.90;;;19.60;29.90;;;;;;5114381;28;20445;-71
2022/08/24 04:36:45;;;;;;;1.13;1.03;;;19.70;1.00;;;;;;5116868;28;20740;-72
2022/08/24 04:39:12;;;;;;;1.07;0.90;;;19.80;1.00;;;;;;5106254;28;20449;-72
2022/08/24 04:41:40;;;;;;;1.17;1.00;;;19.90;1.00;;;;;;5113546;28;20557;-71
2022/08/24 04:44:07;;;;;;;1.10;1.00;;;19.90;1.00;;;;;;5105398;28;20454;-72
2022/08/24 04:46:34;;;;;;;4.30;1.00;;;20.00;1.00;;;;;;5095407;28;20572;-73
2022/08/24 04:49:03;;;;;;;1.00;0.90;;;20.10;1.00;;;;;;5111441;28;20476;-73
2022/08/24 04:51:30;;;;;;;1.50;1.10;;;20.10;1.00;;;;;;5115458;28;20887;-71
2022/08/24 04:53:57;;;;;;;1.67;1.00;;;20.10;1.00;;;;;;5108048;28;20502;-72
2022/08/24 04:56:25;;;;;;;1.13;1.00;;;20.00;1.00;;;;;;5094384;28;20441;-72
2022/08/24 04:58:52;;;;;;;1.10;0.90;;;20.10;1.00;;;;;;5096462;28;20461;-73
2022/08/24 05:01:21;;;;;;;1.40;1.00;;;20.20;1.00;;;;;;5101136;28;20463;-72
2022/08/24 05:03:50;;;;;;;1.40;1.20;;;20.40;1.00;;;;;;5097703;28;20893;-72
2022/08/24 05:06:20;;;;;;;1.40;1.17;;;20.40;1.00;;;;;;5106015;28;20496;-72
2022/08/24 05:08:47;;;;;;;1.80;0.90;;;20.40;1.00;;;;;;5096482;28;20826;-72
2022/08/24 05:11:16;;;;;;;3.13;1.30;;;20.30;1.00;;;;;;5098087;28;20597;-72
2022/08/24 05:13:43;;;;;;;1.80;1.20;;;20.20;1.00;;;;;;5102146;28;20484;-73
2022/08/24 05:16:14;;;;;;;1.30;1.10;;;20.30;1.00;;;;;;5096046;28;20519;-72
2022/08/24 05:18:42;;;;;;;1.30;1.20;;;20.30;1.00;;;;;;5100792;28;20548;-72
2022/08/24 05:21:09;;;;;;;1.87;1.00;;;20.40;1.00;;;;;;5099392;28;20473;-73
2022/08/24 05:23:39;;;;;;;3.70;1.30;;;20.60;1.00;;;;;;5097350;28;20500;-73
2022/08/24 05:26:09;;;;;;;1.40;1.17;;;20.60;1.00;;;;;;5105386;28;20544;-73
2022/08/24 05:28:36;;;;;;;1.60;1.30;;;20.60;1.00;;;;;;5111343;28;20478;-72
2022/08/24 05:31:07;;;;;;;1.77;1.20;;;20.60;1.00;;;;;;5099209;28;20546;-72
2022/08/24 05:33:34;;;;;;;2.40;1.33;;;20.40;1.00;;;;;;5095191;28;20459;-73
2022/08/24 05:36:01;;;;;;;1.60;1.07;;;20.30;1.00;;;;;;5106071;28;20484;-72
2022/08/24 05:38:28;;;;;;;1.73;1.20;;;20.20;1.00;;;;;;5108256;28;20567;-72
2022/08/24 05:40:57;;;;;;;1.97;1.13;;;20.30;1.00;;;;;;5107898;28;20460;-72
2022/08/24 05:43:23;;;;;;;1.97;1.10;;;20.40;1.00;;;;;;5097984;28;20912;-73
2022/08/24 05:45:50;;;;;;;1.93;1.10;;;20.60;1.00;;;;;;5097791;28;20468;-73
2022/08/24 05:48:17;;;;;;;1.40;1.30;;;20.70;1.00;;;;;;5096031;28;20578;-73
2022/08/24 05:50:44;;;;;;;1.60;1.00;;;20.70;1.00;;;;;;5094060;28;20556;-73
2022/08/24 05:53:12;;;;;;;1.30;1.00;;;20.60;1.00;;;;;;5095252;28;20532;-73
2022/08/24 05:55:39;;;;;;;1.40;1.30;;;20.60;1.00;;;;;;5094320;28;20473;-74
2022/08/24 05:58:07;;;;;;;2.03;1.20;;;20.60;1.00;;;;;;5100952;28;21083;-72
2022/08/24 06:00:36;;;;;;;3.73;1.50;;;20.60;1.00;;;;;;5092257;28;21001;-72
2022/08/24 06:03:03;;;;;;;4.40;1.00;;;20.50;1.00;;;;;;5105307;28;20545;-71
2022/08/24 06:05:31;;;;;;;1.83;1.00;;;20.50;1.00;;;;;;5095611;28;20469;-71
2022/08/24 06:07:59;;;;;;;2.20;1.20;;;20.60;1.00;;;;;;5102122;28;20476;-72
2022/08/24 06:10:26;;;;;;;1.57;1.30;;;20.70;1.00;;;;;;5107105;28;20554;-72
2022/08/24 06:12:53;;;;;;;2.43;1.00;;;20.70;1.00;;;;;;5107052;28;20481;-71
2022/08/24 06:15:22;;;;;;;1.10;0.90;;;20.70;1.00;;;;;;5109627;28;20540;-71
2022/08/24 06:17:49;;;;;;;1.97;1.07;;;20.80;1.00;;;;;;5096196;28;20501;-72
2022/08/24 06:20:17;;;;;;;2.20;1.30;;;21.00;1.00;;;;;;5103547;28;20446;-71
2022/08/24 06:22:44;;;;;;;1.37;1.10;;;21.00;1.00;;;;;;5093379;28;20960;-72
2022/08/24 06:27:55;;;;;;;2.60;1.10;;;21.00;1.00;;;;;;5084436;28;20887;-72
2022/08/24 06:30:24;;;;;;;2.33;1.20;;;21.00;1.00;;;;;;5091003;28;20454;-72
2022/08/24 06:32:51;;;;;;;1.87;1.03;;;20.90;1.00;;;;;;5079125;28;20443;-71
2022/08/24 06:35:18;;;;;;;1.67;1.57;;;20.90;1.00;;;;;;5084863;28;20623;-71
2022/08/24 06:37:45;;;;;;;1.83;1.20;;;21.00;1.00;;;;;;5086461;28;20520;-71
2022/08/24 06:40:12;;;;;;;2.20;1.30;;;21.10;1.00;;;;;;5075920;28;20454;-72
2022/08/24 06:42:39;;;;;;;1.77;1.30;;;21.10;1.00;;;;;;5077511;28;20842;-71
2022/08/24 06:45:07;;;;;;;2.47;1.70;;;21.10;1.00;;;;;;5080157;28;20458;-72
2022/08/24 06:47:35;;;;;;;1.97;1.37;;;21.10;1.00;;;;;;5077239;28;20552;-73
2022/08/24 06:50:03;;;;;;;1.37;1.20;;;21.10;1.00;;;;;;5075769;28;20816;-73
2022/08/24 06:52:30;;;;;;;3.57;1.60;;;21.20;1.00;;;;;;5076512;28;20798;-73
2022/08/24 06:54:57;;;;;;;1.97;1.40;;;21.30;1.00;;;;;;5074402;28;20458;-72
2022/08/24 06:57:24;;;;;;;1.53;1.10;;;21.50;1.00;;;;;;5077639;28;20442;-73
2022/08/24 06:59:50;;;;;;;2.40;1.23;;;21.60;1.00;;;;;;5092031;28;20787;-72
2022/08/24 07:02:18;;;;;;;2.47;1.10;;;21.80;1.00;;;;;;5097279;28;20445;-73
2022/08/24 07:04:47;;;;;;;2.10;1.40;;;21.90;1.00;;;;;;5084277;28;20889;-73
2022/08/24 07:07:13;;;;;;;1.70;1.43;;;22.00;1.00;;;;;;5097094;28;20512;-73
2022/08/24 07:09:40;;;;;;;1.77;1.27;;;22.00;1.00;;;;;;5077422;28;20826;-73
2022/08/24 07:12:08;;;;;;;1.77;1.23;;;22.10;1.00;;;;;;5077715;28;20446;-73
2022/08/24 07:14:36;;;;;;;1.70;1.30;;;22.00;1.00;;;;;;5088781;28;20544;-73
2022/08/24 07:17:03;;;;;;;3.80;1.10;;;22.10;1.00;;;;;;5095922;28;20453;-72
2022/08/24 07:19:30;;;;;;;2.20;1.10;;;22.20;1.00;;;;;;5093288;28;20454;-74
2022/08/24 07:21:58;;;;;;;3.87;1.50;;;22.20;1.00;;;;;;5097729;28;20445;-73
2022/08/24 07:24:26;;;;;;;2.27;1.13;;;22.20;1.00;;;;;;5103974;28;20567;-73
2022/08/24 07:26:53;;;;;;;1.53;1.43;;;22.30;1.00;;;;;;5099792;28;20921;-73
2022/08/24 07:29:21;;;;;;;1.77;1.13;;;22.30;1.00;;;;;;5104809;28;20829;-73
2022/08/24 07:31:48;;;;;;;1.90;1.30;;;22.40;1.00;;;;;;5117255;28;20745;-73
2022/08/24 07:34:15;;;;;;;1.50;1.30;;;22.60;1.00;;;;;;5105607;28;20450;-73
2022/08/24 07:36:42;;;;;;;5.73;1.40;;;22.70;1.00;;;;;;5098431;28;20467;-73
2022/08/24 07:39:11;;;;;;;1.93;1.10;;;22.70;1.00;;;;;;5115420;28;20466;-73
2022/08/24 07:41:40;;;;;;;1.23;1.10;;;22.80;1.00;;;;;;5112141;28;20558;-73
2022/08/24 07:44:06;;;;;;;3.23;1.20;;;22.90;1.00;;;;;;5103606;28;20514;-73
2022/08/24 07:46:34;;;;;;;2.67;1.10;;;23.00;1.00;;;;;;5110826;28;20456;-73
2022/08/24 07:49:01;;;;;;;2.13;1.10;;;23.00;1.00;;;;;;5115899;28;20476;-73
2022/08/24 07:51:28;;;;;;;2.07;1.20;;;23.10;1.00;;;;;;5094902;28;20810;-74
2022/08/24 07:53:55;;;;;;;2.63;1.20;;;23.20;1.00;;;;;;5095885;28;20897;-73
2022/08/24 07:56:27;;;;;;;1.63;1.20;;;23.40;1.00;;;;;;5104061;28;20523;-73
2022/08/24 07:58:54;;;;;;;2.50;1.50;;;23.60;1.00;;;;;;5101775;28;20649;-73
2022/08/24 08:01:22;;;;;;;1.60;1.13;;;23.70;1.00;;;;;;5115796;28;20924;-73
2022/08/24 08:03:49;;;;;;;1.67;1.17;;;23.80;1.00;;;;;;5110997;28;20441;-73
2022/08/24 08:06:18;;;;;;;1.60;1.07;;;23.80;1.00;;;;;;5109964;28;20937;-73
2022/08/24 08:08:45;;;;;;;1.40;1.00;;;23.90;1.00;;;;;;5112145;28;20619;-73
2022/08/24 08:11:12;;;;;;;1.27;1.10;;;23.90;1.00;;;;;;5105711;28;20506;-74
2022/08/24 08:13:40;;;;;;;1.00;0.90;;;24.00;1.00;;;;;;5115535;28;20449;-74
2022/08/24 08:16:07;;;;;;;1.50;1.10;;;24.00;1.00;;;;;;5100605;28;20462;-74
2022/08/24 08:18:35;;;;;;;1.13;1.00;;;24.20;1.00;;;;;;5097041;28;20465;-74
2022/08/24 08:21:02;;;;;;;1.20;0.90;;;24.30;1.00;;;;;;5115496;28;20492;-74
2022/08/24 08:26:17;;;;;;;1.40;0.90;;;24.50;1.00;;;;;;5097580;28;20493;-74
2022/08/24 08:28:45;;;;;;;2.03;0.97;;;24.70;1.00;;;;;;5103291;28;20473;-73
2022/08/24 08:31:12;;;;;;;1.00;0.90;;;24.80;1.00;;;;;;5094620;28;21111;-73
2022/08/24 08:33:39;;;;;;;1.20;1.00;;;24.90;1.00;;;;;;5095952;28;20445;-75
2022/08/24 08:36:09;;;;;;;0.90;0.80;;;24.90;1.00;;;;;;5096211;28;20454;-73
2022/08/24 08:38:37;;;;;;;1.00;0.83;;;25.00;1.00;;;;;;5111263;28;20445;-73
2022/08/24 08:41:30;;;;;;;0.90;0.80;;;25.00;1.00;;;;;;5104223;28;20510;-72
2022/08/24 08:44:05;;;;;;;1.47;0.73;;;25.10;1.00;;;;;;5107990;28;20581;-74
2022/08/24 08:46:42;;;;;;;0.90;0.70;;;25.20;1.00;;;;;;5105445;27;20517;-74
2022/08/24 08:49:31;;;;;;;0.80;0.80;;;25.30;1.00;;;;;;5104636;28;20516;-74
2022/08/24 08:52:28;;;;;;;1.07;0.80;;;25.40;1.00;;;;;;5098146;28;20442;-73
2022/08/24 08:55:01;;;;;;;1.17;0.77;;;25.50;1.00;;;;;;5096070;28;20453;-74
2022/08/24 08:57:40;;;;;;;0.90;0.70;;;25.60;1.00;;;;;;5108644;28;20881;-73
2022/08/24 09:00:15;;;;;;;0.90;0.70;;;25.80;1.00;;;;;;5108279;28;20551;-73
2022/08/24 09:03:02;;;;;;;0.70;0.60;;;25.80;1.00;;;;;;5102952;28;20909;-73
2022/08/24 09:06:11;;;;;;;0.87;0.60;;;25.70;1.00;;;;;;5107354;28;21032;-74
2022/08/24 09:08:58;;;;;;;0.70;0.60;;;25.70;1.00;;;;;;5097764;28;20543;-72
2022/08/24 09:11:36;;;;;;;0.90;0.63;;;25.80;1.00;;;;;;5102726;28;20490;-74
2022/08/24 09:14:52;;;;;;;2.20;0.70;;;25.90;1.00;;;;;;5112762;28;20466;-72
2022/08/24 09:17:49;;;;;;;0.60;0.50;;;26.00;1.00;;;;;;5100909;28;20459;-74
2022/08/24 09:20:27;;;;;;;0.80;0.70;;;26.10;1.00;;;;;;5105076;28;20489;-75
2022/08/24 09:23:07;;;;;;;0.77;0.60;;;26.20;1.00;;;;;;5100243;28;20891;-74
2022/08/24 09:25:52;;;;;;;0.60;0.50;;;26.30;1.00;;;;;;5096151;28;20830;-74
2022/08/24 09:28:40;;;;;;;0.90;0.70;;;26.40;1.00;;;;;;5113402;28;20521;-74
2022/08/24 09:31:32;;;;;;;1.00;0.80;;;26.50;1.00;;;;;;5104634;28;20453;-74
2022/08/24 09:34:15;;;;;;;1.63;0.70;;;26.40;1.00;;;;;;5109279;28;20510;-74
2022/08/24 09:36:53;;;;;;;1.00;0.80;;;26.40;1.00;;;;;;5107487;28;20539;-74
2022/08/24 09:39:36;;;;;;;2.50;0.70;;;26.40;1.00;;;;;;5099309;28;20538;-74
2022/08/24 09:42:37;;;;;;;1.10;0.70;;;26.50;1.00;;;;;;5105213;28;20757;-76
2022/08/24 09:46:21;;;;;;;0.60;0.50;;;26.90;1.00;;;;;;5109660;28;20971;-72
2022/08/24 09:49:19;;;;;;;0.70;0.60;;;27.30;1.00;;;;;;5058129;28;20469;-75
2022/08/24 09:52:30;;;;;;;0.90;0.60;;;27.50;1.00;;;;;;5096487;28;20442;-73
2022/08/24 09:55:32;;;;;;;0.90;0.60;;;27.70;1.00;;;;;;5094650;28;20449;-72
2022/08/24 09:58:09;;;;;;;0.70;0.50;;;27.80;1.00;;;;;;5092728;28;20511;-73
2022/08/24 10:00:43;;;;;;;0.70;0.57;;;27.90;1.00;;;;;;5093543;28;20510;-73
2022/08/24 10:03:28;;;;;;;0.70;0.50;;;28.10;1.00;;;;;;5109879;28;20476;-72
2022/08/24 10:06:25;;;;;;;0.80;0.60;;;28.20;1.00;;;;;;5096672;28;20885;-72
2022/08/24 10:09:14;;;;;;;0.77;0.60;;;28.30;1.00;;;;;;5101516;28;20477;-72
2022/08/24 10:11:49;;;;;;;0.70;0.50;;;28.30;1.00;;;;;;5100717;28;20539;-73
2022/08/24 10:14:29;;;;;;;0.60;0.50;;;28.50;1.00;;;;;;5112417;28;20447;-72
2022/08/24 10:17:09;;;;;;;0.80;0.60;;;28.70;1.00;;;;;;5104363;28;20458;-73
2022/08/24 10:19:51;;;;;;;0.60;0.40;;;28.50;1.00;;;;;;5102399;28;20800;-72
2022/08/24 10:22:32;;;;;;;0.80;0.50;;;29.00;1.00;;;;;;5101166;28;20513;-73
2022/08/24 10:25:26;;;;;;;0.90;0.43;;;29.10;1.00;;;;;;5107002;28;20534;-74
2022/08/24 10:28:05;;;;;;;0.60;0.50;;;29.20;1.00;;;;;;5097887;28;20476;-73
2022/08/24 10:30:59;;;;;;;0.80;0.60;;;29.50;1.00;;;;;;5109381;28;20445;-74
2022/08/24 10:33:28;;;;;;;0.80;0.60;;;29.60;1.00;;;;;;5091893;28;20465;-73
2022/08/24 10:36:31;;;;;;;0.80;0.63;;;29.80;1.00;;;;;;5103982;28;20833;-73
2022/08/24 10:46:18;;;;;;;0.70;0.50;;;29.90;1.00;;;;;;5045245;28;20800;-72
2022/08/24 10:49:28;;;;;;;1.70;0.50;;;30.20;1.00;;;;;;5107079;28;20506;-73
2022/08/24 10:52:17;;;;;;;0.50;0.40;;;30.10;1.00;;;;;;5086152;28;20451;-73
2022/08/24 10:54:45;;;;;;;0.70;0.60;;;30.10;1.00;;;;;;5097555;28;20876;-72
2022/08/24 10:57:21;;;;;;;1.07;0.67;;;30.20;1.00;;;;;;5097827;28;20441;-72
2022/08/24 10:59:56;;;;;;;0.60;0.60;;;30.30;1.00;;;;;;5103067;28;21008;-72
2022/08/24 11:02:34;;;;;;;0.60;0.50;;;30.30;1.00;;;;;;5102382;28;20453;-71
2022/08/24 11:05:06;;;;;;;1.13;0.70;;;30.40;1.00;;;;;;5103376;28;20468;-72
2022/08/24 11:07:34;;;;;;;0.90;0.70;;;30.70;1.00;;;;;;5097473;28;20445;-72
2022/08/24 11:10:05;;;;;;;0.60;0.50;;;30.90;1.00;;;;;;5101683;28;20484;-73
2022/08/24 11:12:36;;;;;;;0.60;0.57;;;31.10;1.00;;;;;;5096597;28;20454;-74
2022/08/24 11:15:10;;;;;;;0.83;0.53;;;31.30;1.00;;;;;;5107866;28;20467;-71
2022/08/24 11:17:52;;;;;;;0.50;0.43;;;31.10;1.00;;;;;;5112245;28;20444;-71
2022/08/24 11:20:27;;;;;;;0.87;0.47;;;31.00;1.00;;;;;;5115350;28;20491;-71
2022/08/24 11:23:03;;;;;;;0.70;0.50;;;30.90;1.00;;;;;;5108775;28;20483;-71
2022/08/24 11:25:33;;;;;;;1.20;0.50;;;31.10;1.00;;;;;;5104922;28;20472;-74
2022/08/24 11:28:05;;;;;;;1.00;0.50;;;31.50;1.00;;;;;;5097257;28;20460;-72
2022/08/24 11:30:38;;;;;;;0.50;0.40;;;31.40;1.00;;;;;;5094746;28;20921;-73
2022/08/24 11:33:28;;;;;;;0.80;0.50;;;31.60;1.00;;;;;;5104806;28;20479;-73
2022/08/24 11:35:55;;;;;;;0.70;0.50;;;31.80;1.00;;;;;;5110379;28;20457;-72
2022/08/24 11:38:26;;;;;;;0.77;0.57;;;32.10;1.00;;;;;;5097433;28;20970;-72
2022/08/24 11:40:56;;;;;;;0.80;0.57;;;32.50;1.00;;;;;;5098191;28;20556;-71
2022/08/24 11:43:41;;;;;;;1.20;0.60;;;32.60;1.00;;;;;;5096777;28;20538;-72
2022/08/24 11:46:17;;;;;;;1.00;0.50;;;32.40;1.00;;;;;;5100038;28;20925;-72
2022/08/24 11:48:56;;;;;;;0.60;0.50;;;32.60;1.00;;;;;;5097166;28;20557;-71
2022/08/24 11:51:34;;;;;;;0.80;0.60;;;32.90;1.00;;;;;;5104706;28;20470;-71
2022/08/24 11:54:08;;;;;;;0.70;0.50;;;33.10;1.00;;;;;;5096581;28;20441;-71
2022/08/24 11:56:45;;;;;;;0.80;0.57;;;33.30;99.90;;;;;;5099555;28;20540;-72
2022/08/24 11:59:20;;;;;;;0.87;0.50;;;33.30;99.90;;;;;;5109415;28;20476;-71
2022/08/24 12:01:51;;;;;;;0.60;0.50;;;33.20;99.90;;;;;;5105032;28;20468;-71
2022/08/24 12:04:39;;;;;;;0.60;0.50;;;32.80;99.90;;;;;;5093868;28;20508;-72
2022/08/24 12:07:18;;;;;;;0.63;0.40;;;32.80;99.90;;;;;;5098349;28;20478;-72
2022/08/24 12:10:14;;;;;;;0.70;0.50;;;32.80;99.90;;;;;;5100823;28;20596;-72
2022/08/24 12:12:49;;;;;;;0.77;0.50;;;32.90;99.90;;;;;;5104958;28;20476;-74
2022/08/24 12:15:20;;;;;;;0.97;0.50;;;33.30;99.90;;;;;;5102130;28;20452;-73
2022/08/24 12:17:56;;;;;;;0.43;0.40;;;33.20;99.90;;;;;;5107107;28;20453;-73
2022/08/24 12:20:30;;;;;;;1.10;0.87;;;33.50;99.90;;;;;;5100694;28;20452;-72
2022/08/24 12:23:01;;;;;;;1.40;1.27;;;33.70;99.90;;;;;;5106271;28;20498;-74
2022/08/24 12:28:21;;;;;;;0.50;0.33;;;34.00;99.90;;;;;;5112257;28;20869;-73
2022/08/24 12:30:48;;;;;;;0.80;0.50;;;34.00;99.90;;;;;;5098618;28;20485;-73
2022/08/24 12:33:17;;;;;;;0.50;0.40;;;33.70;99.90;;;;;;5105072;28;20737;-73
2022/08/24 12:35:52;;;;;;;0.60;0.50;;;33.50;99.90;;;;;;5108975;28;20464;-74
2022/08/24 12:38:25;;;;;;;0.50;0.50;;;33.50;99.90;;;;;;5113185;28;20464;-72
2022/08/24 12:40:56;;;;;;;0.60;0.43;;;33.50;99.90;;;;;;5105744;28;21003;-73
2022/08/24 12:43:30;;;;;;;0.70;0.50;;;33.70;99.90;;;;;;5094981;28;20937;-73
2022/08/24 12:46:00;;;;;;;0.57;0.40;;;33.70;99.90;;;;;;5104248;28;20880;-72
2022/08/24 12:48:36;;;;;;;0.60;0.40;;;33.40;99.90;;;;;;5109640;28;20467;-72
2022/08/24 12:51:17;;;;;;;4.40;0.50;;;33.30;99.90;;;;;;5116768;28;20453;-72
2022/08/24 12:54:21;;;;;;;0.50;0.40;;;33.10;99.90;;;;;;5095385;28;20476;-72
2022/08/24 12:57:02;;;;;;;0.70;0.50;;;33.20;99.90;;;;;;5086736;28;20495;-73
2022/08/24 12:59:33;;;;;;;0.67;0.50;;;33.50;99.90;;;;;;5097096;28;20821;-72
2022/08/24 13:02:03;;;;;;;0.60;0.50;;;33.50;99.90;;;;;;5095295;28;20507;-73
2022/08/24 13:04:39;;;;;;;0.60;0.50;;;33.60;99.90;;;;;;5102051;28;20900;-72
2022/08/24 13:07:13;;;;;;;0.63;0.40;;;33.80;99.90;;;;;;5106821;28;20610;-73
2022/08/24 13:09:44;;;;;;;0.60;0.50;;;33.90;99.90;;;;;;5108551;28;20480;-72
2022/08/24 13:12:53;;;;;;;0.50;0.37;;;33.20;99.90;;;;;;5105400;28;20451;-72
2022/08/24 13:15:27;;;;;;;0.80;0.40;;;33.10;99.90;;;;;;5065641;28;21032;-72
2022/08/24 13:17:57;;;;;;;0.57;0.40;;;33.10;99.90;;;;;;5102173;28;20465;-72
2022/08/24 13:20:28;;;;;;;2.77;1.07;;;33.00;99.90;;;;;;5095356;28;20444;-72
2022/08/24 13:23:14;;;;;;;1.43;0.73;;;32.70;99.90;;;;;;5094446;28;20904;-73
2022/08/24 13:25:55;;;;;;;0.83;0.57;;;32.80;99.90;;;;;;5059790;28;20450;-72
2022/08/24 13:28:41;;;;;;;1.27;0.63;;;32.80;99.90;;;;;;5055080;28;20459;-72
2022/08/24 13:31:26;;;;;;;0.50;0.40;;;32.90;99.90;;;;;;5051357;28;20454;-73
2022/08/24 13:33:58;;;;;;;0.70;0.60;;;32.70;99.90;;;;;;5062215;28;20487;-73
2022/08/24 13:36:46;;;;;;;0.50;0.40;;;32.50;99.90;;;;;;5066097;28;20450;-71
2022/08/24 13:39:46;;;;;;;0.60;0.50;;;32.80;99.90;;;;;;5068769;28;20517;-72
2022/08/24 13:42:30;;;;;;;0.53;0.40;;;32.20;99.90;;;;;;5046599;28;20542;-72